sensor_id;sensor_type;location;lat;lon;timestamp;P1;durP1;ratioP1;P2;durP2;ratioP2
52035;SDS011;38046;49.448;32.074;2023-06-22T00:00:27;13.48;;;12.18;;
52035;SDS011;38046;49.448;32.074;2023-06-22T00:02:53;13.27;;;11.77;;
52035;SDS011;38046;49.448;32.074;2023-06-22T00:05:18;14.15;;;12.75;;
52035;SDS011;38046;49.448;32.074;2023-06-22T00:07:44;13.90;;;12.60;;
52035;SDS011;38046;49.448;32.074;2023-06-22T00:10:09;14.55;;;13.05;;
52035;SDS011;38046;49.448;32.074;2023-06-22T00:12:35;15.13;;;13.65;;
52035;SDS011;38046;49.448;32.074;2023-06-22T00:15:00;14.82;;;13.18;;
52035;SDS011;38046;49.448;32.074;2023-06-22T00:17:26;12.18;;;11.07;;
52035;SDS011;38046;49.448;32.074;2023-06-22T00:19:52;14.38;;;12.98;;
52035;SDS011;38046;49.448;32.074;2023-06-22T00:22:20;14.15;;;12.68;;
52035;SDS011;38046;49.448;32.074;2023-06-22T00:24:53;15.13;;;13.02;;
52035;SDS011;38046;49.448;32.074;2023-06-22T00:27:21;14.50;;;13.18;;
52035;SDS011;38046;49.448;32.074;2023-06-22T00:29:47;14.38;;;12.98;;
52035;SDS011;38046;49.448;32.074;2023-06-22T00:32:13;14.25;;;12.85;;
52035;SDS011;38046;49.448;32.074;2023-06-22T00:34:38;14.88;;;13.10;;
52035;SDS011;38046;49.448;32.074;2023-06-22T00:37:04;14.35;;;12.95;;
52035;SDS011;38046;49.448;32.074;2023-06-22T00:39:30;13.80;;;12.43;;
52035;SDS011;38046;49.448;32.074;2023-06-22T00:41:58;14.13;;;12.73;;
52035;SDS011;38046;49.448;32.074;2023-06-22T00:44:24;13.88;;;12.57;;
52035;SDS011;38046;49.448;32.074;2023-06-22T00:46:50;15.48;;;13.35;;
52035;SDS011;38046;49.448;32.074;2023-06-22T00:49:19;15.73;;;14.10;;
52035;SDS011;38046;49.448;32.074;2023-06-22T00:51:45;16.90;;;14.07;;
52035;SDS011;38046;49.448;32.074;2023-06-22T00:54:13;14.65;;;13.25;;
52035;SDS011;38046;49.448;32.074;2023-06-22T00:56:39;13.95;;;12.45;;
52035;SDS011;38046;49.448;32.074;2023-06-22T00:59:06;15.15;;;13.52;;
52035;SDS011;38046;49.448;32.074;2023-06-22T01:01:31;15.35;;;13.70;;
52035;SDS011;38046;49.448;32.074;2023-06-22T01:03:59;16.45;;;14.38;;
52035;SDS011;38046;49.448;32.074;2023-06-22T01:06:29;15.95;;;14.35;;
52035;SDS011;38046;49.448;32.074;2023-06-22T01:09:09;15.85;;;14.25;;
52035;SDS011;38046;49.448;32.074;2023-06-22T01:11:50;15.73;;;14.13;;
52035;SDS011;38046;49.448;32.074;2023-06-22T01:14:30;17.00;;;15.30;;
52035;SDS011;38046;49.448;32.074;2023-06-22T01:17:03;16.08;;;14.48;;
52035;SDS011;38046;49.448;32.074;2023-06-22T01:19:42;17.67;;;15.88;;
52035;SDS011;38046;49.448;32.074;2023-06-22T01:22:17;17.85;;;15.98;;
52035;SDS011;38046;49.448;32.074;2023-06-22T01:29:57;21.65;;;19.02;;
52035;SDS011;38046;49.448;32.074;2023-06-22T01:32:29;21.92;;;19.17;;
52035;SDS011;38046;49.448;32.074;2023-06-22T01:35:00;22.55;;;19.60;;
52035;SDS011;38046;49.448;32.074;2023-06-22T01:37:28;20.40;;;17.92;;
52035;SDS011;38046;49.448;32.074;2023-06-22T01:39:56;20.17;;;18.27;;
52035;SDS011;38046;49.448;32.074;2023-06-22T01:42:23;20.15;;;17.95;;
52035;SDS011;38046;49.448;32.074;2023-06-22T01:44:51;20.48;;;18.38;;
52035;SDS011;38046;49.448;32.074;2023-06-22T01:47:18;20.60;;;18.40;;
52035;SDS011;38046;49.448;32.074;2023-06-22T01:49:48;20.30;;;18.08;;
52035;SDS011;38046;49.448;32.074;2023-06-22T01:52:14;22.48;;;20.17;;
52035;SDS011;38046;49.448;32.074;2023-06-22T01:54:41;22.98;;;20.58;;
52035;SDS011;38046;49.448;32.074;2023-06-22T01:57:07;21.35;;;19.23;;
52035;SDS011;38046;49.448;32.074;2023-06-22T01:59:34;22.17;;;19.85;;
52035;SDS011;38046;49.448;32.074;2023-06-22T02:02:04;23.27;;;20.88;;
52035;SDS011;38046;49.448;32.074;2023-06-22T02:04:36;23.25;;;20.08;;
52035;SDS011;38046;49.448;32.074;2023-06-22T02:07:10;22.15;;;19.83;;
52035;SDS011;38046;49.448;32.074;2023-06-22T02:09:39;23.60;;;21.10;;
52035;SDS011;38046;49.448;32.074;2023-06-22T02:12:07;22.92;;;20.30;;
52035;SDS011;38046;49.448;32.074;2023-06-22T02:14:35;23.17;;;20.73;;
52035;SDS011;38046;49.448;32.074;2023-06-22T02:17:02;23.40;;;21.08;;
52035;SDS011;38046;49.448;32.074;2023-06-22T02:19:29;24.85;;;21.35;;
52035;SDS011;38046;49.448;32.074;2023-06-22T02:21:58;24.25;;;21.85;;
52035;SDS011;38046;49.448;32.074;2023-06-22T02:24:23;24.60;;;22.20;;
52035;SDS011;38046;49.448;32.074;2023-06-22T02:26:49;23.77;;;21.38;;
52035;SDS011;38046;49.448;32.074;2023-06-22T02:29:14;22.95;;;20.63;;
52035;SDS011;38046;49.448;32.074;2023-06-22T02:31:40;23.65;;;20.33;;
52035;SDS011;38046;49.448;32.074;2023-06-22T02:34:06;21.70;;;19.40;;
52035;SDS011;38046;49.448;32.074;2023-06-22T02:36:32;20.65;;;18.48;;
52035;SDS011;38046;49.448;32.074;2023-06-22T02:38:58;18.02;;;16.27;;
52035;SDS011;38046;49.448;32.074;2023-06-22T02:41:26;17.60;;;15.80;;
52035;SDS011;38046;49.448;32.074;2023-06-22T02:43:52;18.58;;;14.95;;
52035;SDS011;38046;49.448;32.074;2023-06-22T02:46:18;16.48;;;14.77;;
52035;SDS011;38046;49.448;32.074;2023-06-22T02:48:43;17.25;;;15.52;;
52035;SDS011;38046;49.448;32.074;2023-06-22T02:51:09;19.55;;;15.45;;
52035;SDS011;38046;49.448;32.074;2023-06-22T02:53:34;17.38;;;15.68;;
52035;SDS011;38046;49.448;32.074;2023-06-22T02:56:03;18.33;;;16.50;;
52035;SDS011;38046;49.448;32.074;2023-06-22T02:58:30;19.00;;;17.10;;
52035;SDS011;38046;49.448;32.074;2023-06-22T03:01:03;21.15;;;18.90;;
52035;SDS011;38046;49.448;32.074;2023-06-22T03:03:30;22.42;;;20.13;;
52035;SDS011;38046;49.448;32.074;2023-06-22T03:05:56;24.40;;;20.80;;
52035;SDS011;38046;49.448;32.074;2023-06-22T03:08:21;21.88;;;19.58;;
52035;SDS011;38046;49.448;32.074;2023-06-22T03:10:47;19.33;;;17.27;;
52035;SDS011;38046;49.448;32.074;2023-06-22T03:13:12;19.92;;;17.88;;
52035;SDS011;38046;49.448;32.074;2023-06-22T03:15:38;19.58;;;17.58;;
52035;SDS011;38046;49.448;32.074;2023-06-22T03:18:04;20.50;;;18.50;;
52035;SDS011;38046;49.448;32.074;2023-06-22T03:20:30;23.52;;;21.08;;
52035;SDS011;38046;49.448;32.074;2023-06-22T03:22:58;21.35;;;19.15;;
52035;SDS011;38046;49.448;32.074;2023-06-22T03:25:24;21.30;;;19.10;;
52035;SDS011;38046;49.448;32.074;2023-06-22T03:27:50;20.58;;;18.38;;
52035;SDS011;38046;49.448;32.074;2023-06-22T03:30:15;21.10;;;18.90;;
52035;SDS011;38046;49.448;32.074;2023-06-22T03:32:41;20.00;;;17.88;;
52035;SDS011;38046;49.448;32.074;2023-06-22T03:35:08;20.38;;;18.30;;
52035;SDS011;38046;49.448;32.074;2023-06-22T03:37:34;19.10;;;17.17;;
52035;SDS011;38046;49.448;32.074;2023-06-22T03:39:59;20.23;;;18.08;;
52035;SDS011;38046;49.448;32.074;2023-06-22T03:42:25;19.55;;;16.70;;
52035;SDS011;38046;49.448;32.074;2023-06-22T03:44:51;17.67;;;15.82;;
52035;SDS011;38046;49.448;32.074;2023-06-22T03:47:17;18.30;;;15.30;;
52035;SDS011;38046;49.448;32.074;2023-06-22T03:49:42;16.35;;;14.60;;
52035;SDS011;38046;49.448;32.074;2023-06-22T03:52:08;17.67;;;15.70;;
52035;SDS011;38046;49.448;32.074;2023-06-22T03:54:35;16.92;;;15.23;;
52035;SDS011;38046;49.448;32.074;2023-06-22T03:57:01;16.05;;;14.35;;
52035;SDS011;38046;49.448;32.074;2023-06-22T03:59:27;18.02;;;15.25;;
52035;SDS011;38046;49.448;32.074;2023-06-22T04:01:53;15.63;;;13.98;;
52035;SDS011;38046;49.448;32.074;2023-06-22T04:04:18;15.07;;;13.27;;
52035;SDS011;38046;49.448;32.074;2023-06-22T04:06:44;15.40;;;13.10;;
52035;SDS011;38046;49.448;32.074;2023-06-22T04:09:10;14.73;;;13.15;;
52035;SDS011;38046;49.448;32.074;2023-06-22T04:11:35;13.32;;;11.80;;
52035;SDS011;38046;49.448;32.074;2023-06-22T04:14:01;13.52;;;12.13;;
52035;SDS011;38046;49.448;32.074;2023-06-22T04:16:27;12.73;;;11.30;;
52035;SDS011;38046;49.448;32.074;2023-06-22T04:18:52;13.40;;;11.38;;
52035;SDS011;38046;49.448;32.074;2023-06-22T04:21:18;13.32;;;11.55;;
52035;SDS011;38046;49.448;32.074;2023-06-22T04:23:47;13.23;;;11.93;;
52035;SDS011;38046;49.448;32.074;2023-06-22T04:26:13;13.02;;;11.73;;
52035;SDS011;38046;49.448;32.074;2023-06-22T04:28:41;12.90;;;11.23;;
52035;SDS011;38046;49.448;32.074;2023-06-22T04:31:07;12.82;;;11.25;;
52035;SDS011;38046;49.448;32.074;2023-06-22T04:33:33;13.23;;;10.90;;
52035;SDS011;38046;49.448;32.074;2023-06-22T04:35:58;12.05;;;10.85;;
52035;SDS011;38046;49.448;32.074;2023-06-22T04:38:27;12.88;;;11.57;;
52035;SDS011;38046;49.448;32.074;2023-06-22T04:40:52;12.50;;;11.02;;
52035;SDS011;38046;49.448;32.074;2023-06-22T04:43:19;12.20;;;10.82;;
52035;SDS011;38046;49.448;32.074;2023-06-22T04:45:45;11.38;;;10.18;;
52035;SDS011;38046;49.448;32.074;2023-06-22T04:48:10;10.75;;;9.65;;
52035;SDS011;38046;49.448;32.074;2023-06-22T04:50:41;11.75;;;10.50;;
52035;SDS011;38046;49.448;32.074;2023-06-22T04:53:06;13.68;;;10.40;;
52035;SDS011;38046;49.448;32.074;2023-06-22T04:55:34;11.40;;;10.18;;
52035;SDS011;38046;49.448;32.074;2023-06-22T04:58:03;11.35;;;10.05;;
52035;SDS011;38046;49.448;32.074;2023-06-22T05:00:30;11.32;;;9.77;;
52035;SDS011;38046;49.448;32.074;2023-06-22T05:02:56;10.10;;;9.10;;
52035;SDS011;38046;49.448;32.074;2023-06-22T05:05:23;9.55;;;8.40;;
52035;SDS011;38046;49.448;32.074;2023-06-22T05:07:50;10.18;;;9.07;;
52035;SDS011;38046;49.448;32.074;2023-06-22T05:10:17;9.90;;;8.10;;
52035;SDS011;38046;49.448;32.074;2023-06-22T05:12:44;9.55;;;8.32;;
52035;SDS011;38046;49.448;32.074;2023-06-22T05:15:10;9.27;;;8.27;;
52035;SDS011;38046;49.448;32.074;2023-06-22T05:17:36;10.50;;;8.20;;
52035;SDS011;38046;49.448;32.074;2023-06-22T05:20:07;9.38;;;8.43;;
52035;SDS011;38046;49.448;32.074;2023-06-22T05:22:37;9.48;;;8.38;;
52035;SDS011;38046;49.448;32.074;2023-06-22T05:25:07;9.05;;;8.15;;
52035;SDS011;38046;49.448;32.074;2023-06-22T05:27:34;11.13;;;9.45;;
52035;SDS011;38046;49.448;32.074;2023-06-22T05:30:04;9.90;;;8.90;;
52035;SDS011;38046;49.448;32.074;2023-06-22T05:32:31;10.60;;;9.55;;
52035;SDS011;38046;49.448;32.074;2023-06-22T05:34:58;10.68;;;9.57;;
52035;SDS011;38046;49.448;32.074;2023-06-22T05:37:24;15.60;;;11.25;;
52035;SDS011;38046;49.448;32.074;2023-06-22T05:39:49;12.07;;;10.50;;
52035;SDS011;38046;49.448;32.074;2023-06-22T05:42:15;12.32;;;10.57;;
52035;SDS011;38046;49.448;32.074;2023-06-22T05:44:41;11.32;;;9.93;;
52035;SDS011;38046;49.448;32.074;2023-06-22T05:47:07;11.10;;;10.00;;
52035;SDS011;38046;49.448;32.074;2023-06-22T05:49:32;12.38;;;10.60;;
52035;SDS011;38046;49.448;32.074;2023-06-22T05:51:58;11.85;;;9.57;;
52035;SDS011;38046;49.448;32.074;2023-06-22T05:54:25;11.85;;;10.32;;
52035;SDS011;38046;49.448;32.074;2023-06-22T05:56:52;10.93;;;9.75;;
52035;SDS011;38046;49.448;32.074;2023-06-22T05:59:17;10.82;;;9.70;;
52035;SDS011;38046;49.448;32.074;2023-06-22T06:01:43;12.18;;;10.98;;
52035;SDS011;38046;49.448;32.074;2023-06-22T06:04:09;13.00;;;10.77;;
52035;SDS011;38046;49.448;32.074;2023-06-22T06:06:34;13.45;;;11.10;;
52035;SDS011;38046;49.448;32.074;2023-06-22T06:09:02;12.45;;;9.98;;
52035;SDS011;38046;49.448;32.074;2023-06-22T06:11:29;11.45;;;10.35;;
52035;SDS011;38046;49.448;32.074;2023-06-22T06:13:54;11.20;;;10.02;;
52035;SDS011;38046;49.448;32.074;2023-06-22T06:16:20;12.38;;;11.18;;
52035;SDS011;38046;49.448;32.074;2023-06-22T06:18:46;11.63;;;10.02;;
52035;SDS011;38046;49.448;32.074;2023-06-22T06:21:14;12.18;;;10.02;;
52035;SDS011;38046;49.448;32.074;2023-06-22T06:23:40;11.82;;;10.63;;
52035;SDS011;38046;49.448;32.074;2023-06-22T06:26:05;12.15;;;10.70;;
52035;SDS011;38046;49.448;32.074;2023-06-22T06:28:32;11.85;;;10.52;;
52035;SDS011;38046;49.448;32.074;2023-06-22T06:30:58;11.18;;;9.98;;
52035;SDS011;38046;49.448;32.074;2023-06-22T06:33:23;11.32;;;10.20;;
52035;SDS011;38046;49.448;32.074;2023-06-22T06:35:49;12.70;;;11.35;;
52035;SDS011;38046;49.448;32.074;2023-06-22T06:38:15;13.02;;;10.43;;
52035;SDS011;38046;49.448;32.074;2023-06-22T06:40:40;12.38;;;11.00;;
52035;SDS011;38046;49.448;32.074;2023-06-22T06:43:06;12.05;;;10.85;;
52035;SDS011;38046;49.448;32.074;2023-06-22T06:45:32;12.52;;;11.23;;
52035;SDS011;38046;49.448;32.074;2023-06-22T06:47:59;14.05;;;10.77;;
52035;SDS011;38046;49.448;32.074;2023-06-22T06:50:25;12.63;;;10.77;;
52035;SDS011;38046;49.448;32.074;2023-06-22T07:05:41;12.70;;;11.50;;
52035;SDS011;38046;49.448;32.074;2023-06-22T07:08:06;12.38;;;10.82;;
52035;SDS011;38046;49.448;32.074;2023-06-22T07:10:32;12.68;;;11.38;;
52035;SDS011;38046;49.448;32.074;2023-06-22T07:12:58;11.88;;;10.68;;
52035;SDS011;38046;49.448;32.074;2023-06-22T07:15:23;11.93;;;10.73;;
52035;SDS011;38046;49.448;32.074;2023-06-22T07:17:50;13.02;;;10.75;;
52035;SDS011;38046;49.448;32.074;2023-06-22T07:20:15;11.95;;;10.75;;
52035;SDS011;38046;49.448;32.074;2023-06-22T07:22:43;10.98;;;9.88;;
52035;SDS011;38046;49.448;32.074;2023-06-22T07:25:09;10.88;;;9.77;;
52035;SDS011;38046;49.448;32.074;2023-06-22T07:27:38;11.73;;;10.50;;
52035;SDS011;38046;49.448;32.074;2023-06-22T07:30:08;11.18;;;10.07;;
52035;SDS011;38046;49.448;32.074;2023-06-22T07:32:35;11.15;;;9.95;;
52035;SDS011;38046;49.448;32.074;2023-06-22T07:35:01;11.20;;;9.93;;
52035;SDS011;38046;49.448;32.074;2023-06-22T07:37:27;11.52;;;10.32;;
52035;SDS011;38046;49.448;32.074;2023-06-22T07:39:54;13.57;;;10.80;;
52035;SDS011;38046;49.448;32.074;2023-06-22T07:42:24;11.48;;;10.30;;
52035;SDS011;38046;49.448;32.074;2023-06-22T07:44:50;11.73;;;10.52;;
52035;SDS011;38046;49.448;32.074;2023-06-22T07:47:16;12.27;;;10.35;;
52035;SDS011;38046;49.448;32.074;2023-06-22T07:49:44;11.50;;;10.23;;
52035;SDS011;38046;49.448;32.074;2023-06-22T07:52:10;12.18;;;10.98;;
52035;SDS011;38046;49.448;32.074;2023-06-22T07:54:36;12.95;;;11.10;;
52035;SDS011;38046;49.448;32.074;2023-06-22T07:57:02;12.30;;;10.20;;
52035;SDS011;38046;49.448;32.074;2023-06-22T07:59:27;13.70;;;11.20;;
52035;SDS011;38046;49.448;32.074;2023-06-22T08:01:54;12.10;;;10.75;;
52035;SDS011;38046;49.448;32.074;2023-06-22T08:04:20;14.52;;;10.48;;
52035;SDS011;38046;49.448;32.074;2023-06-22T08:06:46;12.50;;;11.20;;
52035;SDS011;38046;49.448;32.074;2023-06-22T08:09:11;11.85;;;10.45;;
52035;SDS011;38046;49.448;32.074;2023-06-22T08:11:37;12.65;;;11.45;;
52035;SDS011;38046;49.448;32.074;2023-06-22T08:14:03;13.13;;;11.70;;
52035;SDS011;38046;49.448;32.074;2023-06-22T08:16:28;13.55;;;12.15;;
52035;SDS011;38046;49.448;32.074;2023-06-22T08:18:54;13.15;;;11.75;;
52035;SDS011;38046;49.448;32.074;2023-06-22T08:21:20;11.75;;;10.55;;
52035;SDS011;38046;49.448;32.074;2023-06-22T08:23:46;11.90;;;10.45;;
52035;SDS011;38046;49.448;32.074;2023-06-22T08:26:13;12.40;;;11.13;;
52035;SDS011;38046;49.448;32.074;2023-06-22T08:28:39;11.73;;;10.25;;
52035;SDS011;38046;49.448;32.074;2023-06-22T08:31:05;11.68;;;10.18;;
52035;SDS011;38046;49.448;32.074;2023-06-22T08:33:30;12.32;;;11.13;;
52035;SDS011;38046;49.448;32.074;2023-06-22T08:35:57;11.45;;;10.40;;
52035;SDS011;38046;49.448;32.074;2023-06-22T08:38:23;11.55;;;10.43;;
52035;SDS011;38046;49.448;32.074;2023-06-22T08:40:49;11.02;;;9.93;;
52035;SDS011;38046;49.448;32.074;2023-06-22T08:43:15;11.05;;;9.85;;
52035;SDS011;38046;49.448;32.074;2023-06-22T08:45:41;11.02;;;9.90;;
52035;SDS011;38046;49.448;32.074;2023-06-22T08:48:06;12.55;;;10.60;;
52035;SDS011;38046;49.448;32.074;2023-06-22T08:50:32;11.75;;;10.55;;
52035;SDS011;38046;49.448;32.074;2023-06-22T08:52:57;10.45;;;9.25;;
52035;SDS011;38046;49.448;32.074;2023-06-22T08:55:23;10.68;;;9.57;;
52035;SDS011;38046;49.448;32.074;2023-06-22T08:57:48;11.55;;;10.35;;
52035;SDS011;38046;49.448;32.074;2023-06-22T09:00:14;10.90;;;9.80;;
52035;SDS011;38046;49.448;32.074;2023-06-22T09:02:45;10.98;;;9.15;;
52035;SDS011;38046;49.448;32.074;2023-06-22T09:05:11;10.63;;;9.52;;
52035;SDS011;38046;49.448;32.074;2023-06-22T09:07:38;10.18;;;9.18;;
52035;SDS011;38046;49.448;32.074;2023-06-22T09:10:03;11.45;;;9.68;;
52035;SDS011;38046;49.448;32.074;2023-06-22T09:12:30;10.45;;;9.45;;
52035;SDS011;38046;49.448;32.074;2023-06-22T09:14:57;10.75;;;9.75;;
52035;SDS011;38046;49.448;32.074;2023-06-22T09:17:25;10.70;;;9.57;;
52035;SDS011;38046;49.448;32.074;2023-06-22T09:19:51;10.57;;;9.57;;
52035;SDS011;38046;49.448;32.074;2023-06-22T09:22:16;10.23;;;9.00;;
52035;SDS011;38046;49.448;32.074;2023-06-22T09:24:42;9.20;;;8.27;;
52035;SDS011;38046;49.448;32.074;2023-06-22T09:27:08;10.35;;;8.85;;
52035;SDS011;38046;49.448;32.074;2023-06-22T09:29:33;9.85;;;8.85;;
52035;SDS011;38046;49.448;32.074;2023-06-22T09:31:59;9.73;;;8.73;;
52035;SDS011;38046;49.448;32.074;2023-06-22T09:34:25;10.73;;;9.63;;
52035;SDS011;38046;49.448;32.074;2023-06-22T09:36:51;9.73;;;8.73;;
52035;SDS011;38046;49.448;32.074;2023-06-22T09:39:17;10.50;;;9.50;;
52035;SDS011;38046;49.448;32.074;2023-06-22T09:41:44;10.02;;;9.02;;
52035;SDS011;38046;49.448;32.074;2023-06-22T09:44:09;10.43;;;9.38;;
52035;SDS011;38046;49.448;32.074;2023-06-22T09:46:35;10.82;;;9.77;;
52035;SDS011;38046;49.448;32.074;2023-06-22T09:49:01;9.13;;;8.18;;
52035;SDS011;38046;49.448;32.074;2023-06-22T09:51:26;9.75;;;8.70;;
52035;SDS011;38046;49.448;32.074;2023-06-22T09:53:52;9.98;;;8.98;;
52035;SDS011;38046;49.448;32.074;2023-06-22T09:56:21;11.23;;;8.88;;
52035;SDS011;38046;49.448;32.074;2023-06-22T09:58:47;11.40;;;8.73;;
52035;SDS011;38046;49.448;32.074;2023-06-22T10:01:15;10.40;;;8.93;;
52035;SDS011;38046;49.448;32.074;2023-06-22T10:03:40;9.45;;;7.70;;
52035;SDS011;38046;49.448;32.074;2023-06-22T10:06:06;9.63;;;8.65;;
52035;SDS011;38046;49.448;32.074;2023-06-22T10:08:32;11.15;;;8.45;;
52035;SDS011;38046;49.448;32.074;2023-06-22T10:10:58;8.85;;;7.93;;
52035;SDS011;38046;49.448;32.074;2023-06-22T10:13:24;8.23;;;7.20;;
52035;SDS011;38046;49.448;32.074;2023-06-22T10:15:49;11.00;;;6.97;;
52035;SDS011;38046;49.448;32.074;2023-06-22T10:18:17;7.82;;;6.60;;
52035;SDS011;38046;49.448;32.074;2023-06-22T10:20:43;7.07;;;6.38;;
52035;SDS011;38046;49.448;32.074;2023-06-22T10:23:10;7.20;;;6.40;;
52035;SDS011;38046;49.448;32.074;2023-06-22T10:25:35;7.10;;;6.40;;
52035;SDS011;38046;49.448;32.074;2023-06-22T10:28:01;9.25;;;6.50;;
52035;SDS011;38046;49.448;32.074;2023-06-22T10:30:27;7.63;;;5.95;;
52035;SDS011;38046;49.448;32.074;2023-06-22T10:32:54;7.78;;;6.72;;
52035;SDS011;38046;49.448;32.074;2023-06-22T10:35:19;10.43;;;6.68;;
52035;SDS011;38046;49.448;32.074;2023-06-22T10:37:45;9.35;;;6.72;;
52035;SDS011;38046;49.448;32.074;2023-06-22T10:40:12;7.28;;;6.38;;
52035;SDS011;38046;49.448;32.074;2023-06-22T10:42:40;7.38;;;6.30;;
52035;SDS011;38046;49.448;32.074;2023-06-22T10:45:05;8.45;;;6.50;;
52035;SDS011;38046;49.448;32.074;2023-06-22T10:47:32;7.90;;;6.38;;
52035;SDS011;38046;49.448;32.074;2023-06-22T10:49:57;7.90;;;6.90;;
52035;SDS011;38046;49.448;32.074;2023-06-22T10:52:23;10.05;;;7.68;;
52035;SDS011;38046;49.448;32.074;2023-06-22T10:54:49;9.93;;;8.18;;
52035;SDS011;38046;49.448;32.074;2023-06-22T10:57:14;9.38;;;8.10;;
52035;SDS011;38046;49.448;32.074;2023-06-22T10:59:40;10.65;;;8.10;;
52035;SDS011;38046;49.448;32.074;2023-06-22T11:02:06;8.95;;;7.63;;
52035;SDS011;38046;49.448;32.074;2023-06-22T11:04:31;8.60;;;7.70;;
52035;SDS011;38046;49.448;32.074;2023-06-22T11:06:57;9.30;;;7.80;;
52035;SDS011;38046;49.448;32.074;2023-06-22T11:09:23;9.70;;;8.02;;
52035;SDS011;38046;49.448;32.074;2023-06-22T11:11:49;8.65;;;7.75;;
52035;SDS011;38046;49.448;32.074;2023-06-22T11:14:18;8.82;;;7.93;;
52035;SDS011;38046;49.448;32.074;2023-06-22T11:16:44;9.70;;;8.70;;
52035;SDS011;38046;49.448;32.074;2023-06-22T11:19:11;10.50;;;9.20;;
52035;SDS011;38046;49.448;32.074;2023-06-22T11:21:37;10.10;;;9.05;;
52035;SDS011;38046;49.448;32.074;2023-06-22T11:24:03;10.30;;;9.20;;
52035;SDS011;38046;49.448;32.074;2023-06-22T11:26:28;10.30;;;9.20;;
52035;SDS011;38046;49.448;32.074;2023-06-22T11:28:54;9.73;;;8.40;;
52035;SDS011;38046;49.448;32.074;2023-06-22T11:31:20;9.52;;;8.45;;
52035;SDS011;38046;49.448;32.074;2023-06-22T11:33:46;9.95;;;8.95;;
52035;SDS011;38046;49.448;32.074;2023-06-22T11:36:13;10.00;;;8.10;;
52035;SDS011;38046;49.448;32.074;2023-06-22T11:38:39;9.82;;;8.10;;
52035;SDS011;38046;49.448;32.074;2023-06-22T11:41:05;8.02;;;7.25;;
52035;SDS011;38046;49.448;32.074;2023-06-22T11:43:32;8.07;;;7.28;;
52035;SDS011;38046;49.448;32.074;2023-06-22T11:45:58;7.78;;;6.95;;
52035;SDS011;38046;49.448;32.074;2023-06-22T11:48:25;7.35;;;6.57;;
52035;SDS011;38046;49.448;32.074;2023-06-22T11:50:50;9.00;;;7.07;;
52035;SDS011;38046;49.448;32.074;2023-06-22T11:53:16;27.23;;;16.85;;
52035;SDS011;38046;49.448;32.074;2023-06-22T11:55:42;33.85;;;22.00;;
52035;SDS011;38046;49.448;32.074;2023-06-22T11:58:11;34.03;;;21.42;;
52035;SDS011;38046;49.448;32.074;2023-06-22T12:00:37;23.38;;;16.23;;
52035;SDS011;38046;49.448;32.074;2023-06-22T12:03:03;16.83;;;10.30;;
52035;SDS011;38046;49.448;32.074;2023-06-22T12:05:28;12.43;;;7.80;;
52035;SDS011;38046;49.448;32.074;2023-06-22T12:07:54;10.32;;;7.18;;
52035;SDS011;38046;49.448;32.074;2023-06-22T12:10:20;9.48;;;6.53;;
52035;SDS011;38046;49.448;32.074;2023-06-22T12:12:50;7.30;;;5.70;;
52035;SDS011;38046;49.448;32.074;2023-06-22T12:15:16;6.53;;;5.82;;
52035;SDS011;38046;49.448;32.074;2023-06-22T12:17:42;5.68;;;4.85;;
52035;SDS011;38046;49.448;32.074;2023-06-22T12:20:08;5.80;;;4.93;;
52035;SDS011;38046;49.448;32.074;2023-06-22T12:22:34;10.65;;;5.15;;
52035;SDS011;38046;49.448;32.074;2023-06-22T12:25:02;11.02;;;8.50;;
52035;SDS011;38046;49.448;32.074;2023-06-22T12:27:28;11.68;;;8.10;;
52035;SDS011;38046;49.448;32.074;2023-06-22T12:29:55;18.00;;;10.48;;
52035;SDS011;38046;49.448;32.074;2023-06-22T12:32:21;18.20;;;10.98;;
52035;SDS011;38046;49.448;32.074;2023-06-22T12:34:47;16.65;;;9.95;;
52035;SDS011;38046;49.448;32.074;2023-06-22T12:37:12;14.18;;;8.77;;
52035;SDS011;38046;49.448;32.074;2023-06-22T12:39:40;13.63;;;8.90;;
52035;SDS011;38046;49.448;32.074;2023-06-22T12:42:06;15.20;;;9.02;;
52035;SDS011;38046;49.448;32.074;2023-06-22T12:44:33;13.13;;;7.53;;
52035;SDS011;38046;49.448;32.074;2023-06-22T12:47:03;15.85;;;7.72;;
52035;SDS011;38046;49.448;32.074;2023-06-22T12:49:28;10.70;;;6.97;;
52035;SDS011;38046;49.448;32.074;2023-06-22T12:51:54;13.15;;;8.13;;
52035;SDS011;38046;49.448;32.074;2023-06-22T12:54:20;15.98;;;8.40;;
52035;SDS011;38046;49.448;32.074;2023-06-22T12:56:45;14.27;;;8.60;;
52035;SDS011;38046;49.448;32.074;2023-06-22T12:59:12;14.20;;;9.52;;
52035;SDS011;38046;49.448;32.074;2023-06-22T13:01:37;18.80;;;9.38;;
52035;SDS011;38046;49.448;32.074;2023-06-22T13:04:03;19.17;;;9.82;;
52035;SDS011;38046;49.448;32.074;2023-06-22T13:06:29;14.35;;;7.90;;
52035;SDS011;38046;49.448;32.074;2023-06-22T13:08:54;12.77;;;7.40;;
52035;SDS011;38046;49.448;32.074;2023-06-22T13:11:20;11.07;;;6.88;;
52035;SDS011;38046;49.448;32.074;2023-06-22T13:13:46;6.63;;;5.90;;
52035;SDS011;38046;49.448;32.074;2023-06-22T13:16:12;6.25;;;5.63;;
52035;SDS011;38046;49.448;32.074;2023-06-22T13:18:38;6.95;;;6.07;;
52035;SDS011;38046;49.448;32.074;2023-06-22T13:21:04;8.20;;;6.60;;
52035;SDS011;38046;49.448;32.074;2023-06-22T13:23:30;10.00;;;6.13;;
52035;SDS011;38046;49.448;32.074;2023-06-22T13:25:57;6.95;;;6.15;;
52035;SDS011;38046;49.448;32.074;2023-06-22T13:28:23;7.80;;;6.55;;
52035;SDS011;38046;49.448;32.074;2023-06-22T13:30:48;8.35;;;6.90;;
52035;SDS011;38046;49.448;32.074;2023-06-22T13:33:14;10.77;;;6.57;;
52035;SDS011;38046;49.448;32.074;2023-06-22T13:35:40;13.57;;;6.82;;
52035;SDS011;38046;49.448;32.074;2023-06-22T13:38:09;6.65;;;5.50;;
52035;SDS011;38046;49.448;32.074;2023-06-22T13:40:35;5.80;;;5.20;;
52035;SDS011;38046;49.448;32.074;2023-06-22T13:43:03;7.38;;;5.70;;
52035;SDS011;38046;49.448;32.074;2023-06-22T13:45:29;6.85;;;5.45;;
52035;SDS011;38046;49.448;32.074;2023-06-22T13:47:55;6.70;;;5.80;;
52035;SDS011;38046;49.448;32.074;2023-06-22T13:50:21;6.60;;;5.78;;
52035;SDS011;38046;49.448;32.074;2023-06-22T13:52:46;7.25;;;5.82;;
52035;SDS011;38046;49.448;32.074;2023-06-22T13:55:12;7.85;;;5.55;;
52035;SDS011;38046;49.448;32.074;2023-06-22T13:57:39;7.13;;;6.00;;
52035;SDS011;38046;49.448;32.074;2023-06-22T14:00:05;7.47;;;5.40;;
52035;SDS011;38046;49.448;32.074;2023-06-22T14:02:32;6.95;;;5.43;;
52035;SDS011;38046;49.448;32.074;2023-06-22T14:04:58;7.85;;;5.80;;
52035;SDS011;38046;49.448;32.074;2023-06-22T14:07:23;6.90;;;5.32;;
52035;SDS011;38046;49.448;32.074;2023-06-22T14:09:49;6.47;;;5.35;;
52035;SDS011;38046;49.448;32.074;2023-06-22T14:12:15;5.75;;;5.15;;
52035;SDS011;38046;49.448;32.074;2023-06-22T14:14:42;7.35;;;5.97;;
52035;SDS011;38046;49.448;32.074;2023-06-22T14:17:09;6.70;;;4.95;;
52035;SDS011;38046;49.448;32.074;2023-06-22T14:19:35;6.18;;;5.30;;
52035;SDS011;38046;49.448;32.074;2023-06-22T14:22:01;7.15;;;5.65;;
52035;SDS011;38046;49.448;32.074;2023-06-22T14:24:27;7.05;;;5.57;;
52035;SDS011;38046;49.448;32.074;2023-06-22T14:26:53;5.90;;;5.25;;
52035;SDS011;38046;49.448;32.074;2023-06-22T14:29:20;6.43;;;5.65;;
52035;SDS011;38046;49.448;32.074;2023-06-22T14:31:46;9.85;;;6.13;;